Koun Maru — JK5556 — position and weather

sailwx.info

Track history (hours):
 
Tides and Currents Weather Stations Pressure Air Temp Water Temp Dewpoint Dewpoint Depression Visibility Wind Speed Wind Dir Waves Ship Positions

Koun Maru

Last reported at 2014-Sep-16 06:11 UTC. Time now 2014-Sep-17 01:35 UTC.
Position N 34°10' E 135°06'.

Length 40 m.

Type: Tanker. MMSI: 431401871.

Date/timePositionNaut miles runAvg speedWind from/ knotsBaromVisibWave heightAir tempDewpointWater temp
2014-Sep-16 06:11N 34°10' E 135°06'17 9.3
2014-Sep-16 04:18N 34°28' E 135°09'710.0
2014-Sep-16 03:33N 34°34' E 135°13'6 4.8
2014-Sep-16 02:20N 34°40' E 135°13'0 0.0
2014-Sep-16 01:30N 34°40' E 135°13'4 4.3
2014-Sep-16 00:33N 34°38' E 135°17'7 0.2
2014-Sep-14 10:19N 34°39' E 135°26'8 9.6
2014-Sep-14 09:32N 34°37' E 135°17'1110.8
2014-Sep-14 08:33N 34°36' E 135°05'  
2014-Sep-10 03:05N 34°11' E 135°05'33 1.6
2014-Sep-09 06:24N 34°39' E 135°27'5 1.3
2014-Sep-09 02:19N 34°33' E 135°26'4 0.2
2014-Sep-08 00:22N 34°37' E 135°25'  
Track history (hours):
 
Tides and Currents Weather Stations Pressure Air Temp Water Temp Dewpoint Dewpoint Depression Visibility Wind Speed Wind Dir Waves Ship Positions

Koun Maru

Last reported at 2014-Sep-16 06:11 UTC. Time now 2014-Sep-17 01:35 UTC.
Position N 34°10' E 135°06'.

Length 40 m.

Type: Tanker. MMSI: 431401871.

Date/timePositionNaut miles runAvg speedWind from/ knotsBaromVisibWave heightAir tempDewpointWater temp
2014-Sep-16 06:11N 34°10' E 135°06'17 9.3
2014-Sep-16 04:18N 34°28' E 135°09'710.0
2014-Sep-16 03:33N 34°34' E 135°13'6 4.8
2014-Sep-16 02:20N 34°40' E 135°13'0 0.0
2014-Sep-16 01:30N 34°40' E 135°13'4 4.3
2014-Sep-16 00:33N 34°38' E 135°17'7 0.2
2014-Sep-14 10:19N 34°39' E 135°26'8 9.6
2014-Sep-14 09:32N 34°37' E 135°17'1110.8
2014-Sep-14 08:33N 34°36' E 135°05'  
2014-Sep-10 03:05N 34°11' E 135°05'33 1.6
2014-Sep-09 06:24N 34°39' E 135°27'5 1.3
2014-Sep-09 02:19N 34°33' E 135°26'4 0.2
2014-Sep-08 00:22N 34°37' E 135°25'  

Dump ship's entire track history